createdAt,value
2019-03-28T00:01:57.933Z,101392.96
2019-03-28T00:04:29.508Z,101393.55
2019-03-28T00:07:00.661Z,101397.22
2019-03-28T00:09:32.019Z,101395.36
2019-03-28T00:12:03.256Z,101401.31
2019-03-28T00:14:34.608Z,101403.72
2019-03-28T00:17:06.068Z,101399.11
2019-03-28T00:19:37.410Z,101405.22
2019-03-28T00:22:08.655Z,101406.71
2019-03-28T00:24:50.771Z,101400.38
2019-03-28T00:27:22.415Z,101408.19
2019-03-28T00:29:54.341Z,101412.30
2019-03-28T00:32:26.328Z,101418.28
2019-03-28T00:34:57.797Z,101406.60
2019-03-28T00:37:30.275Z,101413.02
2019-03-28T00:40:02.012Z,101415.31
2019-03-28T00:42:33.702Z,101414.14
2019-03-28T00:45:07.152Z,101406.23
2019-03-28T00:47:38.493Z,101420.13
2019-03-28T00:50:10.306Z,101424.81
2019-03-28T00:52:41.854Z,101417.77
2019-03-28T00:55:13.823Z,101416.69
2019-03-28T00:57:45.381Z,101425.10
2019-03-28T01:00:17.040Z,101428.49
2019-03-28T01:02:48.901Z,101416.81
2019-03-28T01:05:20.464Z,101425.96
2019-03-28T01:07:52.004Z,101433.33
2019-03-28T01:10:23.782Z,101426.11
2019-03-28T01:12:55.355Z,101430.00
2019-03-28T01:15:27.082Z,101428.29
2019-03-28T01:17:58.641Z,101430.88
2019-03-28T01:20:30.502Z,101438.96
2019-03-28T01:23:03.801Z,101447.75
2019-03-28T01:25:35.361Z,101442.70
2019-03-28T01:28:07.116Z,101451.61
2019-03-28T01:30:38.877Z,101449.24
2019-03-28T01:33:10.636Z,101456.91
2019-03-28T01:35:42.188Z,101465.42
2019-03-28T01:38:13.852Z,101467.00
2019-03-28T01:40:45.680Z,101472.16
2019-03-28T01:43:17.163Z,101472.98
2019-03-28T01:45:48.920Z,101476.88
2019-03-28T01:48:20.379Z,101490.14
2019-03-28T01:50:51.932Z,101492.95
2019-03-28T01:53:23.695Z,101489.56
2019-03-28T01:55:55.168Z,101503.89
2019-03-28T01:58:26.902Z,101500.00
2019-03-28T02:00:58.464Z,101500.69
2019-03-28T02:03:30.218Z,101510.89
2019-03-28T02:06:01.674Z,101507.36
2019-03-28T02:08:33.434Z,101505.02
2019-03-28T02:11:05.399Z,101507.69
2019-03-28T02:13:36.959Z,101513.88
2019-03-28T02:16:08.608Z,101516.95
2019-03-28T02:18:40.283Z,101512.77
2019-03-28T02:21:11.938Z,101523.19
2019-03-28T02:23:43.698Z,101529.67
2019-03-28T02:26:15.449Z,101533.12
2019-03-28T02:28:46.905Z,101537.89
2019-03-28T02:31:18.557Z,101537.50
2019-03-28T02:33:50.419Z,101539.23
2019-03-28T02:36:21.990Z,101542.27
2019-03-28T02:38:54.765Z,101546.41
2019-03-28T02:41:26.423Z,101547.38
2019-03-28T02:43:58.281Z,101550.67
2019-03-28T02:46:29.837Z,101543.80
2019-03-28T02:49:01.598Z,101548.07
2019-03-28T02:51:33.256Z,101560.23
2019-03-28T02:54:05.580Z,101559.36
2019-03-28T02:56:37.325Z,101565.34
2019-03-28T02:59:09.051Z,101570.06
2019-03-28T03:01:40.830Z,101569.55
2019-03-28T03:04:12.683Z,101571.64
2019-03-28T03:06:44.229Z,101573.74
2019-03-28T03:09:15.889Z,101574.59
2019-03-28T03:11:47.443Z,101580.12
2019-03-28T03:14:19.306Z,101576.04
2019-03-28T03:16:50.764Z,101584.60
2019-03-28T03:19:22.519Z,101588.02
2019-03-28T03:21:54.176Z,101598.68
2019-03-28T03:24:25.827Z,101602.94
2019-03-28T03:26:57.704Z,101608.02
2019-03-28T03:29:30.371Z,101604.84
2019-03-28T03:32:02.152Z,101609.48
2019-03-28T03:34:33.789Z,101611.94
2019-03-28T03:37:05.656Z,101620.97
2019-03-28T03:39:39.717Z,101623.81
2019-03-28T03:42:11.746Z,101621.86
2019-03-28T03:44:43.392Z,101634.89
2019-03-28T03:47:15.155Z,101635.73
2019-03-28T03:49:46.814Z,101643.00
2019-03-28T03:52:18.477Z,101646.22
2019-03-28T03:54:50.229Z,101653.73
2019-03-28T03:57:21.992Z,101658.42
2019-03-28T03:59:53.558Z,101666.52
2019-03-28T04:02:25.299Z,101672.72
2019-03-28T04:04:57.371Z,101677.27
2019-03-28T04:07:28.950Z,101684.20
2019-03-28T04:10:00.785Z,101679.66
2019-03-28T04:12:32.197Z,101685.22
2019-03-28T04:15:04.372Z,101690.50
2019-03-28T04:17:36.184Z,101702.14
2019-03-28T04:20:07.829Z,101702.11
2019-03-28T04:22:39.494Z,101706.39
2019-03-28T04:25:11.395Z,101712.19
2019-03-28T04:27:43.055Z,101713.39
2019-03-28T04:30:15.587Z,101718.98
2019-03-28T04:32:48.466Z,101714.19
2019-03-28T04:35:20.538Z,101723.23
2019-03-28T04:37:52.356Z,101714.07
2019-03-28T04:40:23.955Z,101717.97
2019-03-28T04:42:55.718Z,101723.44
2019-03-28T04:45:27.575Z,101723.31
2019-03-28T04:47:59.135Z,101727.86
2019-03-28T04:50:30.588Z,101730.47
2019-03-28T04:53:02.255Z,101729.02
2019-03-28T04:55:33.901Z,101731.78
2019-03-28T04:58:06.582Z,101742.16
2019-03-28T05:00:38.238Z,101737.25
2019-03-28T05:03:09.899Z,101738.37
2019-03-28T05:05:41.767Z,101740.50
2019-03-28T05:08:13.130Z,101744.76
2019-03-28T05:10:44.768Z,101750.78
2019-03-28T05:13:16.333Z,101757.20
2019-03-28T05:15:47.981Z,101757.48
2019-03-28T05:18:19.230Z,101759.09
2019-03-28T05:20:50.886Z,101768.41
2019-03-28T05:23:22.465Z,101770.44
2019-03-28T05:25:54.101Z,101771.58
2019-03-28T05:28:25.861Z,101776.50
2019-03-28T05:30:57.419Z,101771.70
2019-03-28T05:33:29.081Z,101774.76
2019-03-28T05:36:00.528Z,101774.38
2019-03-28T05:38:31.998Z,101779.30
2019-03-28T05:41:03.634Z,101782.79
2019-03-28T05:43:35.296Z,101793.03
2019-03-28T05:46:06.654Z,101800.72
2019-03-28T05:48:38.204Z,101805.25
2019-03-28T05:51:09.557Z,101802.64
2019-03-28T05:53:43.894Z,101810.48
2019-03-28T05:56:14.204Z,101810.75
2019-03-28T05:58:45.967Z,101809.66
2019-03-28T06:01:17.411Z,101810.05
2019-03-28T06:03:48.864Z,101809.45
2019-03-28T06:06:20.312Z,101816.37
2019-03-28T06:08:51.765Z,101816.08
2019-03-28T06:11:23.431Z,101822.28
2019-03-28T06:13:55.095Z,101822.23
2019-03-28T06:16:26.455Z,101823.05
2019-03-28T06:18:57.993Z,101819.36
2019-03-28T06:21:29.370Z,101826.95
2019-03-28T06:24:00.903Z,101827.02
2019-03-28T06:26:32.454Z,101837.66
2019-03-28T06:29:04.022Z,101835.84
2019-03-28T06:31:36.289Z,101835.97
2019-03-28T06:34:07.696Z,101841.62
2019-03-28T06:36:40.394Z,101845.02
2019-03-28T06:39:11.973Z,101837.84
2019-03-28T06:41:44.480Z,101847.77
2019-03-28T06:44:15.907Z,101841.89
2019-03-28T06:46:47.576Z,101844.73
2019-03-28T06:49:19.222Z,101847.19
2019-03-28T06:51:50.780Z,101861.73
2019-03-28T06:54:24.291Z,101858.95
2019-03-28T06:56:55.829Z,101861.99
2019-03-28T06:59:37.112Z,101868.53
2019-03-28T07:02:00.581Z,101870.34
2019-03-28T07:04:32.118Z,101869.62
2019-03-28T07:07:03.798Z,101881.84
2019-03-28T07:09:35.457Z,101881.10
2019-03-28T07:12:06.813Z,101873.58
2019-03-28T07:14:38.461Z,101887.39
2019-03-28T07:17:10.012Z,101887.24
2019-03-28T07:19:41.575Z,101890.20
2019-03-28T07:22:13.038Z,101886.09
2019-03-28T07:24:44.676Z,101898.72
2019-03-28T07:27:17.277Z,101902.81
2019-03-28T07:29:51.093Z,101905.52
2019-03-28T07:32:21.629Z,101909.20
2019-03-28T07:34:53.258Z,101914.05
2019-03-28T07:37:27.858Z,101915.57
2019-03-28T07:39:57.599Z,101920.39
2019-03-28T07:42:29.148Z,101921.77
2019-03-28T07:45:00.718Z,101923.94
2019-03-28T07:47:32.361Z,101931.13
2019-03-28T07:50:05.976Z,101925.58
2019-03-28T07:52:37.518Z,101920.34
2019-03-28T07:55:08.974Z,101921.94
2019-03-28T07:57:41.417Z,101928.73
2019-03-28T08:00:12.939Z,101928.17
2019-03-28T08:02:44.564Z,101929.60
2019-03-28T08:05:16.217Z,101927.09
2019-03-28T08:07:47.571Z,101932.67
2019-03-28T08:10:19.125Z,101929.72
2019-03-28T08:12:50.699Z,101931.53
2019-03-28T08:15:22.032Z,101940.40
2019-03-28T08:17:54.410Z,101939.31
2019-03-28T08:20:26.784Z,101932.23
2019-03-28T08:22:58.334Z,101938.24
2019-03-28T08:25:29.912Z,101937.20
2019-03-28T08:28:01.547Z,101934.50
2019-03-28T08:30:35.348Z,101930.87
2019-03-28T08:33:06.963Z,101933.53
2019-03-28T08:35:38.492Z,101939.77
2019-03-28T08:38:10.490Z,101936.84
2019-03-28T08:40:43.139Z,101938.11
2019-03-28T08:43:15.059Z,101929.09
2019-03-28T08:45:46.472Z,101934.48
2019-03-28T08:48:18.103Z,101932.55
2019-03-28T08:50:49.748Z,101936.62
2019-03-28T08:53:21.296Z,101940.91
2019-03-28T08:55:52.959Z,101935.20
2019-03-28T08:58:24.411Z,101938.95
2019-03-28T09:00:55.967Z,101944.31
2019-03-28T09:03:27.524Z,101950.09
2019-03-28T09:06:00.001Z,101941.84
2019-03-28T09:08:31.662Z,101946.64
2019-03-28T09:11:03.215Z,101942.44
2019-03-28T09:13:34.870Z,101948.31
2019-03-28T09:16:06.422Z,101937.52
2019-03-28T09:18:37.868Z,101942.06
2019-03-28T09:21:09.534Z,101939.52
2019-03-28T09:23:41.504Z,101941.94
2019-03-28T09:26:12.953Z,101942.06
2019-03-28T09:28:44.610Z,101946.26
2019-03-28T09:31:20.213Z,101947.05
2019-03-28T09:33:49.257Z,101940.69
2019-03-28T09:36:20.813Z,101945.30
2019-03-28T09:38:52.238Z,101937.58
2019-03-28T09:41:24.008Z,101939.13
2019-03-28T09:43:56.123Z,101946.03
2019-03-28T09:46:27.653Z,101942.88
2019-03-28T09:48:59.000Z,101947.23
2019-03-28T09:51:30.556Z,101952.95
2019-03-28T09:54:02.092Z,101955.91
2019-03-28T09:56:33.551Z,101960.14
2019-03-28T09:59:05.118Z,101954.36
2019-03-28T10:01:36.676Z,101965.03
2019-03-28T10:04:08.046Z,101965.45
2019-03-28T10:06:39.682Z,101958.11
2019-03-28T10:09:11.237Z,101963.16
2019-03-28T10:11:42.595Z,101964.39
2019-03-28T10:14:13.939Z,101963.95
2019-03-28T10:16:45.597Z,101967.48
2019-03-28T10:19:17.155Z,101960.73
2019-03-28T10:21:48.693Z,101964.73
2019-03-28T10:24:20.378Z,101973.19
2019-03-28T10:26:52.131Z,101966.78
2019-03-28T10:29:23.483Z,101968.03
2019-03-28T10:31:55.033Z,101969.23
2019-03-28T10:34:26.459Z,101973.46
2019-03-28T10:36:58.144Z,101971.77
2019-03-28T10:39:30.957Z,101974.83
2019-03-28T10:42:02.587Z,101970.88
2019-03-28T10:44:34.260Z,101957.55
2019-03-28T10:47:05.901Z,101965.59
2019-03-28T10:49:37.460Z,101968.95
2019-03-28T10:52:11.951Z,101965.48
2019-03-28T10:54:42.614Z,101963.39
2019-03-28T10:57:28.882Z,101972.63
2019-03-28T10:59:47.267Z,101973.56
2019-03-28T11:02:19.124Z,101967.14
2019-03-28T11:04:50.778Z,101970.98
2019-03-28T11:07:22.238Z,101970.88
2019-03-28T11:09:54.112Z,101965.63
2019-03-28T11:12:25.756Z,101966.72
2019-03-28T11:14:57.103Z,101963.21
2019-03-28T11:17:28.555Z,101977.14
2019-03-28T11:20:00.504Z,101967.67
2019-03-28T11:22:32.077Z,101963.55
2019-03-28T11:25:04.045Z,101960.16
2019-03-28T11:27:35.497Z,101965.49
2019-03-28T11:30:07.771Z,101960.08
2019-03-28T11:32:39.424Z,101948.78
2019-03-28T11:35:11.085Z,101958.85
2019-03-28T11:37:42.535Z,101956.69
2019-03-28T11:40:14.193Z,101953.88
2019-03-28T11:42:45.579Z,101953.89
2019-03-28T11:45:17.415Z,101951.62
2019-03-28T11:47:48.765Z,101949.59
2019-03-28T11:50:20.320Z,101948.03
2019-03-28T11:52:51.972Z,101942.02
2019-03-28T11:55:23.529Z,101941.33
2019-03-28T11:57:56.608Z,101940.20
2019-03-28T12:00:27.900Z,101945.58
2019-03-28T12:02:59.528Z,101935.98
2019-03-28T12:05:30.976Z,101942.39
2019-03-28T12:08:02.534Z,101942.03
2019-03-28T12:10:34.196Z,101937.28
2019-03-28T12:13:05.750Z,101935.98
2019-03-28T12:15:37.123Z,101931.45
2019-03-28T12:18:08.761Z,101938.28
2019-03-28T12:20:40.110Z,101932.22
2019-03-28T12:23:11.762Z,101922.28
2019-03-28T12:25:47.251Z,101929.16
2019-03-28T12:28:17.025Z,101922.28
2019-03-28T12:30:48.587Z,101923.17
2019-03-28T12:33:20.130Z,101929.31
2019-03-28T12:35:52.526Z,101925.30
2019-03-28T12:38:23.962Z,101923.86
2019-03-28T12:40:55.522Z,101914.72
2019-03-28T12:43:27.072Z,101913.05
2019-03-28T12:45:58.527Z,101925.89
2019-03-28T12:48:29.980Z,101923.64
2019-03-28T12:51:01.390Z,101912.59
2019-03-28T12:53:33.094Z,101911.02
2019-03-28T12:56:04.545Z,101906.20
2019-03-28T12:58:36.307Z,101905.58
2019-03-28T13:01:07.670Z,101908.53
2019-03-28T13:03:45.489Z,101898.44
2019-03-28T13:06:12.709Z,101908.70
2019-03-28T13:08:44.274Z,101897.91
2019-03-28T13:11:15.810Z,101905.27
2019-03-28T13:13:47.684Z,101905.73
2019-03-28T13:16:19.345Z,101901.53
2019-03-28T13:18:50.898Z,101901.30
2019-03-28T13:21:22.567Z,101903.92
2019-03-28T13:23:54.013Z,101924.72
2019-03-28T13:26:25.877Z,101917.29
2019-03-28T13:28:57.505Z,101917.95
2019-03-28T13:31:29.186Z,101913.85
2019-03-28T13:34:01.370Z,101931.80
2019-03-28T13:36:33.936Z,101923.03
2019-03-28T13:39:06.810Z,101933.36
2019-03-28T13:41:38.278Z,101919.78
2019-03-28T13:44:12.109Z,101921.50
2019-03-28T13:46:42.574Z,101918.95
2019-03-28T13:49:14.166Z,101918.73
2019-03-28T13:51:45.623Z,101920.06
2019-03-28T13:54:17.287Z,101914.30
2019-03-28T13:56:48.937Z,101921.98
2019-03-28T13:59:20.504Z,101916.21
2019-03-28T14:01:52.051Z,101917.20
2019-03-28T14:04:23.606Z,101913.77
2019-03-28T14:06:55.272Z,101919.38
2019-03-28T14:09:26.723Z,101921.34
2019-03-28T14:11:58.374Z,101919.09
2019-03-28T14:14:29.829Z,101917.17
2019-03-28T14:17:01.490Z,101916.52
2019-03-28T14:19:32.862Z,101915.41
2019-03-28T14:22:04.597Z,101917.75
2019-03-28T14:24:35.949Z,101917.66
2019-03-28T14:27:07.812Z,101924.53
2019-03-28T14:29:39.674Z,101917.75
2019-03-28T14:32:11.227Z,101929.59
2019-03-28T14:34:44.014Z,101935.07
2019-03-28T14:37:17.121Z,101935.40
2019-03-28T14:39:49.353Z,101941.94
2019-03-28T14:42:20.824Z,101937.26
2019-03-28T14:44:52.385Z,101939.50
2019-03-28T14:47:23.835Z,101947.55
2019-03-28T14:49:55.391Z,101944.59
2019-03-28T14:52:26.840Z,101942.36
2019-03-28T14:55:01.376Z,101938.56
2019-03-28T14:57:32.820Z,101943.59
2019-03-28T15:00:13.581Z,101954.91
2019-03-28T15:02:44.988Z,101946.30
2019-03-28T15:05:16.482Z,101948.84
2019-03-28T15:07:48.254Z,101957.92
2019-03-28T15:10:19.659Z,101964.09
2019-03-28T15:12:51.365Z,101956.54
2019-03-28T15:15:23.019Z,101965.77
2019-03-28T15:17:54.589Z,101969.83
2019-03-28T15:20:27.582Z,101980.91
2019-03-28T15:22:59.016Z,101982.48
2019-03-28T15:25:30.558Z,101991.39
2019-03-28T15:28:02.237Z,101986.50
2019-03-28T15:30:33.886Z,101988.20
2019-03-28T15:33:05.254Z,101988.53
2019-03-28T15:35:36.895Z,101983.57
2019-03-28T15:38:08.554Z,101986.70
2019-03-28T15:40:40.005Z,101994.40
2019-03-28T15:43:11.382Z,101992.72
2019-03-28T15:45:43.023Z,101998.43
2019-03-28T15:48:14.678Z,101999.17
2019-03-28T15:50:46.036Z,102007.12
2019-03-28T15:53:17.614Z,102001.97
2019-03-28T15:56:16.256Z,102011.18
2019-03-28T15:58:47.603Z,102009.98
2019-03-28T16:01:19.051Z,102012.33
2019-03-28T16:03:53.329Z,102015.05
2019-03-28T16:06:23.912Z,102020.94
2019-03-28T16:08:55.464Z,102024.96
2019-03-28T16:11:27.136Z,102019.20
2019-03-28T16:13:58.886Z,102027.62
2019-03-28T16:16:30.528Z,102030.34
2019-03-28T16:19:02.306Z,102033.60
2019-03-28T16:21:33.767Z,102026.39
2019-03-28T16:24:05.522Z,102034.88
2019-03-28T16:26:36.995Z,102044.28
2019-03-28T16:29:09.041Z,102037.13
2019-03-28T16:31:40.895Z,102042.07
2019-03-28T16:34:12.454Z,102042.81
2019-03-28T16:36:44.316Z,102048.67
2019-03-28T16:39:16.487Z,102048.43
2019-03-28T16:41:48.141Z,102057.76
2019-03-28T16:44:19.909Z,102059.73
2019-03-28T16:46:51.560Z,102057.37
2019-03-28T16:49:23.141Z,102071.56
2019-03-28T16:51:54.887Z,102071.78
2019-03-28T16:54:27.914Z,102071.20
2019-03-28T16:56:59.522Z,102087.16
2019-03-28T16:59:31.001Z,102092.58
2019-03-28T17:02:02.753Z,102092.08
2019-03-28T17:04:34.193Z,102092.70
2019-03-28T17:07:06.875Z,102099.12
2019-03-28T17:09:39.156Z,102098.10
2019-03-28T17:12:11.007Z,102106.20
2019-03-28T17:14:42.868Z,102111.72
2019-03-28T17:17:14.729Z,102106.29
2019-03-28T17:19:46.230Z,102122.66
2019-03-28T17:22:18.156Z,102126.39
2019-03-28T17:24:49.823Z,102124.00
2019-03-28T17:27:21.262Z,102126.78
2019-03-28T17:29:53.122Z,102130.92
2019-03-28T17:32:24.590Z,102134.16
2019-03-28T17:34:56.135Z,102132.15
2019-03-28T17:37:27.889Z,102136.25
2019-03-28T17:39:59.568Z,102126.95
2019-03-28T17:42:31.415Z,102136.65
2019-03-28T17:45:02.888Z,102137.69
2019-03-28T17:47:34.624Z,102139.13
2019-03-28T17:50:07.983Z,102142.31
2019-03-28T17:52:39.373Z,102147.63
2019-03-28T17:55:11.047Z,102142.16
2019-03-28T17:57:42.689Z,102144.88
2019-03-28T18:00:14.551Z,102144.60
2019-03-28T18:02:46.110Z,102148.17
2019-03-28T18:05:17.766Z,102149.59
2019-03-28T18:07:49.514Z,102151.81
2019-03-28T18:10:21.387Z,102145.05
2019-03-28T18:12:53.145Z,102154.73
2019-03-28T18:15:24.601Z,102157.86
2019-03-28T18:17:56.467Z,102153.59
2019-03-28T18:20:28.124Z,102152.44
2019-03-28T18:22:59.678Z,102152.11
2019-03-28T18:25:31.334Z,102146.58
2019-03-28T18:28:03.098Z,102148.42
2019-03-28T18:30:37.345Z,102155.55
2019-03-28T18:33:08.560Z,102165.13
2019-03-28T18:35:40.324Z,102160.94
2019-03-28T18:38:11.881Z,102161.47
2019-03-28T18:40:43.639Z,102160.70
2019-03-28T18:43:15.294Z,102161.23
2019-03-28T18:45:46.953Z,102162.19
2019-03-28T18:48:29.115Z,102166.14
2019-03-28T18:50:53.135Z,102164.50
2019-03-28T18:53:24.993Z,102163.29
2019-03-28T18:55:56.486Z,102169.83
2019-03-28T18:58:28.418Z,102173.42
2019-03-28T19:00:59.798Z,102173.05
2019-03-28T19:03:31.523Z,102167.11
2019-03-28T19:06:03.388Z,102168.46
2019-03-28T19:08:34.943Z,102164.27
2019-03-28T19:11:06.701Z,102163.92
2019-03-28T19:13:38.156Z,102167.05
2019-03-28T19:16:09.812Z,102170.16
2019-03-28T19:18:41.593Z,102166.78
2019-03-28T19:21:13.342Z,102163.41
2019-03-28T19:23:44.795Z,102165.70
2019-03-28T19:26:16.449Z,102167.11
2019-03-28T19:28:48.103Z,102165.47
2019-03-28T19:31:19.964Z,102171.22
2019-03-28T19:33:51.420Z,102172.59
2019-03-28T19:36:23.278Z,102170.05
2019-03-28T19:38:54.731Z,102173.14
2019-03-28T19:41:26.287Z,102169.77
2019-03-28T19:43:57.843Z,102177.15
2019-03-28T19:46:29.198Z,102175.03
2019-03-28T19:49:00.766Z,102171.17
2019-03-28T19:51:32.147Z,102177.70
2019-03-28T19:54:03.515Z,102177.73
2019-03-28T19:56:35.420Z,102185.55
2019-03-28T19:59:06.898Z,102184.72
2019-03-28T20:01:38.548Z,102184.36
2019-03-28T20:04:10.394Z,102186.95
2019-03-28T20:06:42.046Z,102189.19
2019-03-28T20:09:16.470Z,102195.73
2019-03-28T20:11:46.696Z,102192.28
2019-03-28T20:14:18.254Z,102190.52
2019-03-28T20:16:50.331Z,102193.47
2019-03-28T20:19:22.185Z,102192.17
2019-03-28T20:21:53.737Z,102189.16
2019-03-28T20:24:25.495Z,102202.11
2019-03-28T20:26:56.948Z,102207.30
2019-03-28T20:29:28.514Z,102199.52
2019-03-28T20:32:00.177Z,102209.48
2019-03-28T20:34:32.025Z,102205.17
2019-03-28T20:37:03.889Z,102208.23
2019-03-28T20:39:35.273Z,102207.41
2019-03-28T20:42:06.904Z,102219.13
2019-03-28T20:44:38.551Z,102219.16
2019-03-28T20:47:10.318Z,102215.81
2019-03-28T20:49:46.735Z,102216.75
2019-03-28T20:52:17.450Z,102222.42
2019-03-28T20:54:49.184Z,102225.95
2019-03-28T20:57:20.837Z,102221.70
2019-03-28T20:59:52.695Z,102222.19
2019-03-28T21:02:24.357Z,102227.47
2019-03-28T21:04:56.010Z,102230.98
2019-03-28T21:07:27.879Z,102234.03
2019-03-28T21:09:59.427Z,102238.44
2019-03-28T21:12:31.190Z,102235.95
2019-03-28T21:15:02.852Z,102238.94
2019-03-28T21:17:35.940Z,102232.52
2019-03-28T21:20:07.801Z,102231.23
2019-03-28T21:22:39.261Z,102227.41
2019-03-28T21:25:10.822Z,102233.87
2019-03-28T21:27:42.472Z,102225.28
2019-03-28T21:30:14.233Z,102230.45
2019-03-28T21:32:55.139Z,102229.65
2019-03-28T21:35:19.179Z,102229.27
2019-03-28T21:37:51.090Z,102228.44
2019-03-28T21:40:22.624Z,102224.16
2019-03-28T21:42:54.273Z,102226.37
2019-03-28T21:45:25.922Z,102230.73
2019-03-28T21:47:57.579Z,102229.93
2019-03-28T21:50:29.237Z,102238.16
2019-03-28T21:53:01.196Z,102237.75
2019-03-28T21:55:33.061Z,102234.76
2019-03-28T21:58:05.033Z,102235.23
2019-03-28T22:00:36.682Z,102238.28
2019-03-28T22:03:08.540Z,102237.85
2019-03-28T22:05:40.102Z,102234.41
2019-03-28T22:08:11.861Z,102233.56
2019-03-28T22:10:43.623Z,102232.70
2019-03-28T22:13:15.379Z,102230.52
2019-03-28T22:15:47.139Z,102235.23
2019-03-28T22:18:18.998Z,102231.36
2019-03-28T22:20:50.479Z,102222.30
2019-03-28T22:23:22.326Z,102224.89
2019-03-28T22:25:53.875Z,102222.30
2019-03-28T22:28:25.772Z,102226.19
2019-03-28T22:30:57.392Z,102223.59
2019-03-28T22:33:28.949Z,102226.62
2019-03-28T22:36:00.819Z,102219.28
2019-03-28T22:38:32.366Z,102219.72
2019-03-28T22:41:04.126Z,102222.30
2019-03-28T22:43:38.645Z,102218.88
2019-03-28T22:46:09.753Z,102215.00
2019-03-28T22:48:44.305Z,102217.64
2019-03-28T22:51:15.708Z,102208.59
2019-03-28T22:53:48.207Z,102213.77
2019-03-28T22:56:20.006Z,102214.60
2019-03-28T22:58:51.664Z,102214.60
2019-03-28T23:01:23.532Z,102215.03
2019-03-28T23:03:56.717Z,102218.05
2019-03-28T23:06:28.479Z,102214.60
2019-03-28T23:09:00.141Z,102212.02
2019-03-28T23:11:31.704Z,102215.03
2019-03-28T23:14:03.452Z,102208.53
2019-03-28T23:16:35.011Z,102214.98
2019-03-28T23:19:06.567Z,102218.40
2019-03-28T23:21:38.139Z,102215.78
2019-03-28T23:24:09.983Z,102216.62
2019-03-28T23:26:41.642Z,102217.91
2019-03-28T23:29:14.234Z,102220.06
2019-03-28T23:31:46.717Z,102223.95
2019-03-28T23:34:18.305Z,102223.90
2019-03-28T23:36:50.115Z,102226.80
2019-03-28T23:39:21.871Z,102227.61
2019-03-28T23:41:53.640Z,102218.55
2019-03-28T23:44:25.400Z,102222.86
2019-03-28T23:46:56.848Z,102219.41
2019-03-28T23:49:28.426Z,102225.91
2019-03-28T23:52:00.057Z,102224.22
2019-03-28T23:54:31.722Z,102228.12
2019-03-28T23:57:03.584Z,102227.26
2019-03-28T23:59:35.034Z,102224.30
